sensor_id;sensor_type;location;lat;lon;timestamp;pressure;altitude;pressure_sealevel;temperature;humidity
51460;BME280;37534;39.772;2.718;2023-09-19T00:00:21;101456.44;;;20.88;100.00
51460;BME280;37534;39.772;2.718;2023-09-19T00:02:56;101452.41;;;20.83;100.00
51460;BME280;37534;39.772;2.718;2023-09-19T00:05:25;101464.38;;;20.87;100.00
51460;BME280;37534;39.772;2.718;2023-09-19T00:07:54;101457.09;;;20.92;100.00
51460;BME280;37534;39.772;2.718;2023-09-19T00:10:21;101463.56;;;20.86;100.00
51460;BME280;37534;39.772;2.718;2023-09-19T00:12:51;101451.22;;;20.73;100.00
51460;BME280;37534;39.772;2.718;2023-09-19T00:15:17;101451.75;;;20.63;100.00
51460;BME280;37534;39.772;2.718;2023-09-19T00:17:43;101447.25;;;20.65;100.00
51460;BME280;37534;39.772;2.718;2023-09-19T00:20:09;101449.97;;;20.64;100.00
51460;BME280;37534;39.772;2.718;2023-09-19T00:22:41;101431.59;;;20.48;100.00
51460;BME280;37534;39.772;2.718;2023-09-19T00:25:11;101441.16;;;20.49;100.00
51460;BME280;37534;39.772;2.718;2023-09-19T00:27:38;101442.00;;;20.49;100.00
51460;BME280;37534;39.772;2.718;2023-09-19T00:30:08;101444.63;;;20.49;100.00
51460;BME280;37534;39.772;2.718;2023-09-19T00:32:39;101435.09;;;20.48;100.00
51460;BME280;37534;39.772;2.718;2023-09-19T00:35:05;101436.25;;;20.43;100.00
51460;BME280;37534;39.772;2.718;2023-09-19T00:37:31;101431.59;;;20.48;100.00
51460;BME280;37534;39.772;2.718;2023-09-19T00:39:56;101433.38;;;20.47;100.00
51460;BME280;37534;39.772;2.718;2023-09-19T00:42:22;101433.97;;;20.52;100.00
51460;BME280;37534;39.772;2.718;2023-09-19T00:44:48;101436.69;;;20.51;100.00
51460;BME280;37534;39.772;2.718;2023-09-19T00:47:17;101423.06;;;20.44;100.00
51460;BME280;37534;39.772;2.718;2023-09-19T00:49:45;101442.28;;;20.45;100.00
51460;BME280;37534;39.772;2.718;2023-09-19T00:52:16;101441.75;;;20.54;100.00
51460;BME280;37534;39.772;2.718;2023-09-19T00:54:47;101446.63;;;20.60;100.00
51460;BME280;37534;39.772;2.718;2023-09-19T00:57:14;101450.91;;;20.47;100.00
51460;BME280;37534;39.772;2.718;2023-09-19T00:59:41;101450.63;;;20.36;100.00
51460;BME280;37534;39.772;2.718;2023-09-19T01:02:08;101443.44;;;20.23;100.00
51460;BME280;37534;39.772;2.718;2023-09-19T01:04:34;101441.94;;;20.19;100.00
51460;BME280;37534;39.772;2.718;2023-09-19T01:06:59;101436.84;;;20.16;100.00
51460;BME280;37534;39.772;2.718;2023-09-19T01:09:25;101443.63;;;20.20;100.00
51460;BME280;37534;39.772;2.718;2023-09-19T01:11:58;101447.00;;;20.22;100.00
51460;BME280;37534;39.772;2.718;2023-09-19T01:22:48;101453.44;;;20.17;100.00
51460;BME280;37534;39.772;2.718;2023-09-19T01:28:39;101454.03;;;20.22;100.00
51460;BME280;37534;39.772;2.718;2023-09-19T01:31:10;101448.97;;;20.19;100.00
51460;BME280;37534;39.772;2.718;2023-09-19T01:33:56;101454.59;;;20.11;100.00
51460;BME280;37534;39.772;2.718;2023-09-19T01:36:32;101466.63;;;20.15;100.00
51460;BME280;37534;39.772;2.718;2023-09-19T01:39:03;101464.09;;;20.13;100.00
51460;BME280;37534;39.772;2.718;2023-09-19T01:41:55;101461.38;;;20.15;100.00
51460;BME280;37534;39.772;2.718;2023-09-19T01:44:40;101460.44;;;20.16;100.00
51460;BME280;37534;39.772;2.718;2023-09-19T01:47:19;101456.47;;;20.09;100.00
51460;BME280;37534;39.772;2.718;2023-09-19T01:49:59;101451.13;;;19.94;100.00
51460;BME280;37534;39.772;2.718;2023-09-19T01:52:30;101459.13;;;19.91;100.00
51460;BME280;37534;39.772;2.718;2023-09-19T01:55:05;101455.75;;;19.89;100.00
51460;BME280;37534;39.772;2.718;2023-09-19T01:57:54;101461.19;;;19.86;100.00
51460;BME280;37534;39.772;2.718;2023-09-19T02:00:24;101451.09;;;19.79;100.00
51460;BME280;37534;39.772;2.718;2023-09-19T02:02:51;101468.44;;;19.81;100.00
51460;BME280;37534;39.772;2.718;2023-09-19T02:05:25;101461.94;;;19.71;100.00
51460;BME280;37534;39.772;2.718;2023-09-19T02:07:51;101461.34;;;19.66;100.00
51460;BME280;37534;39.772;2.718;2023-09-19T02:10:18;101467.66;;;19.62;100.00
51460;BME280;37534;39.772;2.718;2023-09-19T02:12:43;101467.06;;;19.56;100.00
51460;BME280;37534;39.772;2.718;2023-09-19T02:15:10;101472.72;;;19.65;100.00
51460;BME280;37534;39.772;2.718;2023-09-19T02:17:36;101469.41;;;19.61;100.00
51460;BME280;37534;39.772;2.718;2023-09-19T02:20:01;101465.44;;;19.54;100.00
51460;BME280;37534;39.772;2.718;2023-09-19T02:22:28;101461.75;;;19.58;100.00
51460;BME280;37534;39.772;2.718;2023-09-19T02:24:55;101462.59;;;19.59;100.00
51460;BME280;37534;39.772;2.718;2023-09-19T02:27:23;101471.53;;;19.54;100.00
51460;BME280;37534;39.772;2.718;2023-09-19T02:29:49;101460.53;;;19.48;100.00
51460;BME280;37534;39.772;2.718;2023-09-19T02:32:15;101471.69;;;19.51;100.00
51460;BME280;37534;39.772;2.718;2023-09-19T02:34:43;101451.66;;;19.50;100.00
51460;BME280;37534;39.772;2.718;2023-09-19T02:37:10;101447.22;;;19.52;100.00
51460;BME280;37534;39.772;2.718;2023-09-19T02:39:35;101447.38;;;19.49;100.00
51460;BME280;37534;39.772;2.718;2023-09-19T02:42:01;101455.81;;;19.54;100.00
51460;BME280;37534;39.772;2.718;2023-09-19T02:44:29;101449.66;;;19.55;100.00
51460;BME280;37534;39.772;2.718;2023-09-19T02:46:55;101438.75;;;19.47;100.00
51460;BME280;37534;39.772;2.718;2023-09-19T02:49:22;101443.81;;;19.50;100.00
51460;BME280;37534;39.772;2.718;2023-09-19T02:51:48;101452.28;;;19.55;100.00
51460;BME280;37534;39.772;2.718;2023-09-19T02:54:13;101446.28;;;19.53;100.00
51460;BME280;37534;39.772;2.718;2023-09-19T02:56:40;101445.34;;;19.54;100.00
51460;BME280;37534;39.772;2.718;2023-09-19T02:59:06;101448.06;;;19.53;100.00
51460;BME280;37534;39.772;2.718;2023-09-19T03:01:32;101446.34;;;19.52;100.00
51460;BME280;37534;39.772;2.718;2023-09-19T03:03:59;101443.38;;;19.42;100.00
51460;BME280;37534;39.772;2.718;2023-09-19T03:06:24;101438.44;;;19.36;100.00
51460;BME280;37534;39.772;2.718;2023-09-19T03:08:50;101439.31;;;19.36;100.00
51460;BME280;37534;39.772;2.718;2023-09-19T03:11:17;101434.31;;;19.32;100.00
51460;BME280;37534;39.772;2.718;2023-09-19T03:13:50;101430.91;;;19.30;100.00
51460;BME280;37534;39.772;2.718;2023-09-19T03:16:16;101414.91;;;19.18;100.00
51460;BME280;37534;39.772;2.718;2023-09-19T03:18:42;101421.78;;;19.21;100.00
51460;BME280;37534;39.772;2.718;2023-09-19T03:21:07;101420.25;;;19.17;100.00
51460;BME280;37534;39.772;2.718;2023-09-19T03:23:33;101416.69;;;19.18;100.00
51460;BME280;37534;39.772;2.718;2023-09-19T03:25:58;101400.84;;;19.21;100.00
51460;BME280;37534;39.772;2.718;2023-09-19T03:28:24;101400.38;;;19.30;100.00
51460;BME280;37534;39.772;2.718;2023-09-19T03:31:04;101408.91;;;19.34;100.00
51460;BME280;37534;39.772;2.718;2023-09-19T03:33:30;101408.91;;;19.16;100.00
51460;BME280;37534;39.772;2.718;2023-09-19T03:36:00;101409.84;;;19.15;100.00
51460;BME280;37534;39.772;2.718;2023-09-19T03:38:27;101407.38;;;19.12;100.00
51460;BME280;37534;39.772;2.718;2023-09-19T03:40:54;101400.44;;;19.11;100.00
51460;BME280;37534;39.772;2.718;2023-09-19T03:43:19;101390.41;;;19.04;100.00
51460;BME280;37534;39.772;2.718;2023-09-19T03:45:45;101389.47;;;19.05;100.00
51460;BME280;37534;39.772;2.718;2023-09-19T03:48:12;101398.00;;;19.08;100.00
51460;BME280;37534;39.772;2.718;2023-09-19T03:50:38;101391.38;;;19.18;100.00
51460;BME280;37534;39.772;2.718;2023-09-19T03:53:04;101395.53;;;19.23;100.00
51460;BME280;37534;39.772;2.718;2023-09-19T03:55:32;101390.69;;;19.15;100.00
51460;BME280;37534;39.772;2.718;2023-09-19T03:57:57;101376.91;;;19.11;100.00
51460;BME280;37534;39.772;2.718;2023-09-19T04:00:23;101382.16;;;19.11;100.00
51460;BME280;37534;39.772;2.718;2023-09-19T04:02:52;101384.47;;;19.17;100.00
51460;BME280;37534;39.772;2.718;2023-09-19T04:05:18;101388.06;;;19.15;100.00
51460;BME280;37534;39.772;2.718;2023-09-19T04:07:43;101383.09;;;19.10;100.00
51460;BME280;37534;39.772;2.718;2023-09-19T04:10:09;101382.25;;;19.10;100.00
51460;BME280;37534;39.772;2.718;2023-09-19T04:12:37;101378.06;;;19.23;100.00
51460;BME280;37534;39.772;2.718;2023-09-19T04:15:02;101378.28;;;19.18;100.00
51460;BME280;37534;39.772;2.718;2023-09-19T04:17:28;101380.00;;;19.02;100.00
51460;BME280;37534;39.772;2.718;2023-09-19T04:19:54;101378.34;;;19.01;100.00
51460;BME280;37534;39.772;2.718;2023-09-19T04:22:19;101372.16;;;19.02;100.00
51460;BME280;37534;39.772;2.718;2023-09-19T04:24:45;101354.66;;;18.87;100.00
51460;BME280;37534;39.772;2.718;2023-09-19T04:27:10;101363.41;;;18.86;100.00
51460;BME280;37534;39.772;2.718;2023-09-19T04:29:39;101350.59;;;18.79;100.00
51460;BME280;37534;39.772;2.718;2023-09-19T04:32:07;101367.56;;;18.90;100.00
51460;BME280;37534;39.772;2.718;2023-09-19T04:34:33;101371.88;;;18.91;100.00
51460;BME280;37534;39.772;2.718;2023-09-19T04:37:00;101356.00;;;18.76;100.00
51460;BME280;37534;39.772;2.718;2023-09-19T04:39:26;101359.84;;;18.69;100.00
51460;BME280;37534;39.772;2.718;2023-09-19T04:41:52;101366.31;;;18.62;100.00
51460;BME280;37534;39.772;2.718;2023-09-19T04:44:18;101365.22;;;18.66;100.00
51460;BME280;37534;39.772;2.718;2023-09-19T04:46:44;101356.00;;;18.59;100.00
51460;BME280;37534;39.772;2.718;2023-09-19T04:49:11;101374.22;;;18.60;100.00
51460;BME280;37534;39.772;2.718;2023-09-19T04:51:39;101375.06;;;18.61;100.00
51460;BME280;37534;39.772;2.718;2023-09-19T04:54:05;101371.34;;;18.65;100.00
51460;BME280;37534;39.772;2.718;2023-09-19T04:56:32;101357.66;;;18.60;100.00
51460;BME280;37534;39.772;2.718;2023-09-19T04:58:58;101358.00;;;18.71;100.00
51460;BME280;37534;39.772;2.718;2023-09-19T05:01:24;101350.41;;;18.84;100.00
51460;BME280;37534;39.772;2.718;2023-09-19T05:03:50;101356.66;;;18.82;100.00
51460;BME280;37534;39.772;2.718;2023-09-19T05:06:21;101350.38;;;18.67;100.00
51460;BME280;37534;39.772;2.718;2023-09-19T05:08:50;101355.25;;;18.74;100.00
51460;BME280;37534;39.772;2.718;2023-09-19T05:11:17;101352.69;;;18.73;100.00
51460;BME280;37534;39.772;2.718;2023-09-19T05:13:43;101349.41;;;18.69;100.00
51460;BME280;37534;39.772;2.718;2023-09-19T05:16:08;101358.75;;;18.73;100.00
51460;BME280;37534;39.772;2.718;2023-09-19T05:18:35;101355.25;;;18.74;100.00
51460;BME280;37534;39.772;2.718;2023-09-19T05:21:04;101346.47;;;18.75;100.00
51460;BME280;37534;39.772;2.718;2023-09-19T05:23:30;101350.59;;;18.79;100.00
51460;BME280;37534;39.772;2.718;2023-09-19T05:25:56;101354.19;;;18.96;100.00
51460;BME280;37534;39.772;2.718;2023-09-19T05:28:25;101350.94;;;18.91;100.00
51460;BME280;37534;39.772;2.718;2023-09-19T05:30:52;101369.88;;;18.96;100.00
51460;BME280;37534;39.772;2.718;2023-09-19T05:33:19;101376.00;;;18.95;100.00
51460;BME280;37534;39.772;2.718;2023-09-19T05:35:44;101386.44;;;18.77;100.00
51460;BME280;37534;39.772;2.718;2023-09-19T05:38:12;101387.72;;;18.69;100.00
51460;BME280;37534;39.772;2.718;2023-09-19T05:40:39;101396.50;;;18.68;100.00
51460;BME280;37534;39.772;2.718;2023-09-19T05:43:10;101401.19;;;18.61;100.00
51460;BME280;37534;39.772;2.718;2023-09-19T05:45:36;101410.56;;;18.65;100.00
51460;BME280;37534;39.772;2.718;2023-09-19T05:48:13;101414.25;;;18.61;100.00
51460;BME280;37534;39.772;2.718;2023-09-19T05:50:43;101430.63;;;18.84;100.00
51460;BME280;37534;39.772;2.718;2023-09-19T05:53:08;101428.00;;;18.84;100.00
51460;BME280;37534;39.772;2.718;2023-09-19T05:55:37;101435.97;;;18.80;100.00
51460;BME280;37534;39.772;2.718;2023-09-19T05:58:02;101438.56;;;18.80;100.00
51460;BME280;37534;39.772;2.718;2023-09-19T06:00:29;101436.03;;;18.79;100.00
51460;BME280;37534;39.772;2.718;2023-09-19T06:02:58;101449.63;;;18.87;100.00
51460;BME280;37534;39.772;2.718;2023-09-19T06:05:25;101436.16;;;18.95;100.00
51460;BME280;37534;39.772;2.718;2023-09-19T06:07:58;101432.63;;;18.96;100.00
51460;BME280;37534;39.772;2.718;2023-09-19T06:10:33;101429.41;;;19.08;100.00
51460;BME280;37534;39.772;2.718;2023-09-19T06:13:01;101437.63;;;19.18;100.00
51460;BME280;37534;39.772;2.718;2023-09-19T06:15:29;101436.44;;;19.24;100.00
51460;BME280;37534;39.772;2.718;2023-09-19T06:17:58;101440.38;;;19.32;100.00
51460;BME280;37534;39.772;2.718;2023-09-19T06:20:25;101428.44;;;19.44;100.00
51460;BME280;37534;39.772;2.718;2023-09-19T06:22:52;101420.09;;;19.53;100.00
51460;BME280;37534;39.772;2.718;2023-09-19T06:25:18;101410.16;;;19.60;100.00
51460;BME280;37534;39.772;2.718;2023-09-19T06:27:50;101429.75;;;19.86;100.00
51460;BME280;37534;39.772;2.718;2023-09-19T06:30:20;101420.56;;;19.95;100.00
51460;BME280;37534;39.772;2.718;2023-09-19T06:32:46;101421.13;;;20.16;100.00
51460;BME280;37534;39.772;2.718;2023-09-19T06:35:13;101410.16;;;20.25;100.00
51460;BME280;37534;39.772;2.718;2023-09-19T06:37:39;101395.22;;;20.27;100.00
51460;BME280;37534;39.772;2.718;2023-09-19T06:40:12;101421.47;;;20.42;100.00
51460;BME280;37534;39.772;2.718;2023-09-19T06:43:00;101411.84;;;20.42;100.00
51460;BME280;37534;39.772;2.718;2023-09-19T06:45:27;101440.50;;;20.61;100.00
51460;BME280;37534;39.772;2.718;2023-09-19T06:47:53;101431.19;;;20.72;100.00
51460;BME280;37534;39.772;2.718;2023-09-19T06:50:23;101433.13;;;20.84;100.00
51460;BME280;37534;39.772;2.718;2023-09-19T06:52:51;101447.38;;;20.94;100.00
51460;BME280;37534;39.772;2.718;2023-09-19T06:55:18;101448.13;;;20.96;100.00
51460;BME280;37534;39.772;2.718;2023-09-19T06:57:47;101441.19;;;20.95;100.00
51460;BME280;37534;39.772;2.718;2023-09-19T07:00:14;101443.41;;;20.87;100.00
51460;BME280;37534;39.772;2.718;2023-09-19T07:03:02;101463.44;;;21.04;100.00
51460;BME280;37534;39.772;2.718;2023-09-19T07:05:30;101456.41;;;21.04;100.00
51460;BME280;37534;39.772;2.718;2023-09-19T07:07:57;101447.97;;;21.14;100.00
51460;BME280;37534;39.772;2.718;2023-09-19T07:10:26;101450.63;;;21.28;100.00
51460;BME280;37534;39.772;2.718;2023-09-19T07:13:02;101455.56;;;21.63;100.00
51460;BME280;37534;39.772;2.718;2023-09-19T07:15:30;101447.09;;;22.01;100.00
51460;BME280;37534;39.772;2.718;2023-09-19T07:17:58;101444.72;;;22.39;100.00
51460;BME280;37534;39.772;2.718;2023-09-19T07:20:25;101443.56;;;22.71;100.00
51460;BME280;37534;39.772;2.718;2023-09-19T07:22:52;101436.16;;;22.90;100.00
51460;BME280;37534;39.772;2.718;2023-09-19T07:25:20;101428.84;;;23.08;100.00
51460;BME280;37534;39.772;2.718;2023-09-19T07:27:46;101436.63;;;23.35;100.00
51460;BME280;37534;39.772;2.718;2023-09-19T07:30:12;101436.19;;;23.67;100.00
51460;BME280;37534;39.772;2.718;2023-09-19T07:32:38;101419.47;;;24.05;100.00
51460;BME280;37534;39.772;2.718;2023-09-19T07:35:04;101412.78;;;24.49;100.00
51460;BME280;37534;39.772;2.718;2023-09-19T07:37:31;101423.06;;;25.01;100.00
51460;BME280;37534;39.772;2.718;2023-09-19T07:39:59;101419.91;;;25.54;100.00
51460;BME280;37534;39.772;2.718;2023-09-19T07:42:25;101420.25;;;26.06;100.00
51460;BME280;37534;39.772;2.718;2023-09-19T07:44:51;101422.25;;;26.57;100.00
51460;BME280;37534;39.772;2.718;2023-09-19T07:47:16;101438.50;;;26.85;96.08
51460;BME280;37534;39.772;2.718;2023-09-19T07:49:42;101443.34;;;26.80;94.57
51460;BME280;37534;39.772;2.718;2023-09-19T07:52:09;101449.59;;;26.79;96.09
51460;BME280;37534;39.772;2.718;2023-09-19T07:54:36;101451.88;;;26.51;96.19
51460;BME280;37534;39.772;2.718;2023-09-19T07:57:02;101438.34;;;26.33;98.70
51460;BME280;37534;39.772;2.718;2023-09-19T07:59:27;101458.88;;;26.41;99.99
51460;BME280;37534;39.772;2.718;2023-09-19T08:01:53;101467.34;;;26.55;98.08
51460;BME280;37534;39.772;2.718;2023-09-19T08:04:19;101473.97;;;26.93;96.46
51460;BME280;37534;39.772;2.718;2023-09-19T08:06:45;101485.69;;;27.33;89.61
51460;BME280;37534;39.772;2.718;2023-09-19T08:09:11;101484.03;;;27.63;80.13
51460;BME280;37534;39.772;2.718;2023-09-19T08:11:39;101488.25;;;27.44;79.87
51460;BME280;37534;39.772;2.718;2023-09-19T08:14:05;101502.41;;;28.16;75.04
51460;BME280;37534;39.772;2.718;2023-09-19T08:16:33;101503.44;;;29.42;73.90
51460;BME280;37534;39.772;2.718;2023-09-19T08:18:58;101502.44;;;30.36;69.75
51460;BME280;37534;39.772;2.718;2023-09-19T08:21:24;101495.41;;;30.81;65.28
51460;BME280;37534;39.772;2.718;2023-09-19T08:23:51;101505.97;;;30.73;63.31
51460;BME280;37534;39.772;2.718;2023-09-19T08:26:17;101497.91;;;31.26;61.38
51460;BME280;37534;39.772;2.718;2023-09-19T08:28:42;101487.06;;;31.80;60.22
51460;BME280;37534;39.772;2.718;2023-09-19T08:31:08;101490.25;;;31.92;54.96
51460;BME280;37534;39.772;2.718;2023-09-19T08:33:35;101484.44;;;31.54;54.22
51460;BME280;37534;39.772;2.718;2023-09-19T08:36:04;101479.84;;;31.73;55.95
51460;BME280;37534;39.772;2.718;2023-09-19T08:38:35;101493.91;;;31.83;55.45
51460;BME280;37534;39.772;2.718;2023-09-19T08:41:05;101500.09;;;32.51;54.25
51460;BME280;37534;39.772;2.718;2023-09-19T08:43:31;101485.59;;;33.11;48.14
51460;BME280;37534;39.772;2.718;2023-09-19T08:48:31;101497.91;;;34.01;46.11
51460;BME280;37534;39.772;2.718;2023-09-19T08:51:02;101506.53;;;34.42;45.58
51460;BME280;37534;39.772;2.718;2023-09-19T08:53:41;101508.91;;;34.60;40.97
51460;BME280;37534;39.772;2.718;2023-09-19T08:56:10;101510.28;;;34.56;41.15
51460;BME280;37534;39.772;2.718;2023-09-19T08:58:48;101519.28;;;34.63;41.80
51460;BME280;37534;39.772;2.718;2023-09-19T09:01:15;101524.16;;;34.37;41.65
51460;BME280;37534;39.772;2.718;2023-09-19T09:03:43;101505.16;;;33.28;43.66
51460;BME280;37534;39.772;2.718;2023-09-19T09:06:14;101501.13;;;33.40;45.39
51460;BME280;37534;39.772;2.718;2023-09-19T09:08:40;101502.66;;;33.18;45.50
51460;BME280;37534;39.772;2.718;2023-09-19T09:11:06;101495.56;;;33.58;46.27
51460;BME280;37534;39.772;2.718;2023-09-19T09:13:35;101498.56;;;34.03;46.71
51460;BME280;37534;39.772;2.718;2023-09-19T09:16:01;101498.00;;;34.62;44.25
51460;BME280;37534;39.772;2.718;2023-09-19T09:18:28;101500.69;;;34.85;44.60
51460;BME280;37534;39.772;2.718;2023-09-19T09:20:55;101495.06;;;35.48;44.42
51460;BME280;37534;39.772;2.718;2023-09-19T09:23:21;101476.19;;;35.56;43.15
51460;BME280;37534;39.772;2.718;2023-09-19T09:25:53;101498.19;;;35.96;41.58
51460;BME280;37534;39.772;2.718;2023-09-19T09:28:26;101506.50;;;36.81;40.75
51460;BME280;37534;39.772;2.718;2023-09-19T09:30:53;101507.72;;;36.78;38.48
51460;BME280;37534;39.772;2.718;2023-09-19T09:33:19;101493.75;;;37.53;37.30
51460;BME280;37534;39.772;2.718;2023-09-19T09:35:52;101511.44;;;38.23;36.46
51460;BME280;37534;39.772;2.718;2023-09-19T09:38:22;101514.19;;;38.64;36.49
51460;BME280;37534;39.772;2.718;2023-09-19T09:40:56;101528.09;;;38.94;32.92
51460;BME280;37534;39.772;2.718;2023-09-19T09:43:32;101531.63;;;38.74;33.07
51460;BME280;37534;39.772;2.718;2023-09-19T09:46:17;101541.50;;;39.61;34.51
51460;BME280;37534;39.772;2.718;2023-09-19T09:51:42;101539.72;;;39.93;32.55
51460;BME280;37534;39.772;2.718;2023-09-19T09:54:16;101549.88;;;38.99;33.10
51460;BME280;37534;39.772;2.718;2023-09-19T09:57:12;101557.88;;;38.26;35.70
51460;BME280;37534;39.772;2.718;2023-09-19T09:59:51;101569.06;;;37.46;36.71
51460;BME280;37534;39.772;2.718;2023-09-19T10:02:29;101578.50;;;36.64;37.31
51460;BME280;37534;39.772;2.718;2023-09-19T10:04:58;101568.56;;;35.76;38.26
51460;BME280;37534;39.772;2.718;2023-09-19T10:08:10;101573.84;;;34.00;42.17
51460;BME280;37534;39.772;2.718;2023-09-19T10:10:40;101583.84;;;33.58;43.13
51460;BME280;37534;39.772;2.718;2023-09-19T10:13:07;101584.72;;;33.18;43.96
51460;BME280;37534;39.772;2.718;2023-09-19T10:15:33;101588.59;;;32.56;46.40
51460;BME280;37534;39.772;2.718;2023-09-19T10:18:04;101582.38;;;31.70;48.76
51460;BME280;37534;39.772;2.718;2023-09-19T10:20:30;101590.16;;;31.19;51.46
51460;BME280;37534;39.772;2.718;2023-09-19T10:23:02;101592.13;;;30.81;53.51
51460;BME280;37534;39.772;2.718;2023-09-19T10:25:37;101591.56;;;30.32;56.21
51460;BME280;37534;39.772;2.718;2023-09-19T10:28:05;101599.56;;;30.04;57.59
51460;BME280;37534;39.772;2.718;2023-09-19T10:30:37;101588.66;;;29.88;58.91
51460;BME280;37534;39.772;2.718;2023-09-19T10:33:09;101586.88;;;29.88;59.29
51460;BME280;37534;39.772;2.718;2023-09-19T10:35:38;101583.25;;;29.80;59.21
51460;BME280;37534;39.772;2.718;2023-09-19T10:38:06;101574.69;;;29.86;59.95
51460;BME280;37534;39.772;2.718;2023-09-19T10:40:35;101572.16;;;29.84;62.08
51460;BME280;37534;39.772;2.718;2023-09-19T10:43:05;101573.59;;;29.79;62.71
51460;BME280;37534;39.772;2.718;2023-09-19T10:45:35;101576.53;;;29.75;63.33
51460;BME280;37534;39.772;2.718;2023-09-19T10:48:02;101557.94;;;29.56;64.25
51460;BME280;37534;39.772;2.718;2023-09-19T10:50:55;101564.94;;;29.47;64.21
51460;BME280;37534;39.772;2.718;2023-09-19T10:53:18;101568.59;;;29.36;65.83
51460;BME280;37534;39.772;2.718;2023-09-19T10:55:52;101572.25;;;28.96;68.23
51460;BME280;37534;39.772;2.718;2023-09-19T10:58:31;101558.81;;;28.78;71.15
51460;BME280;37534;39.772;2.718;2023-09-19T11:01:00;101557.53;;;28.63;72.44
51460;BME280;37534;39.772;2.718;2023-09-19T11:03:37;101562.66;;;28.45;75.52
51460;BME280;37534;39.772;2.718;2023-09-19T11:06:18;101549.72;;;28.21;76.81
51460;BME280;37534;39.772;2.718;2023-09-19T11:11:41;101550.22;;;28.05;79.68
51460;BME280;37534;39.772;2.718;2023-09-19T11:14:28;101552.53;;;27.67;81.23
51460;BME280;37534;39.772;2.718;2023-09-19T11:25:43;101540.34;;;27.34;85.42
51460;BME280;37534;39.772;2.718;2023-09-19T11:30:51;101525.72;;;27.19;87.29
51460;BME280;37534;39.772;2.718;2023-09-19T11:33:29;101536.97;;;27.32;85.06
51460;BME280;37534;39.772;2.718;2023-09-19T11:36:10;101533.16;;;27.46;84.42
51460;BME280;37534;39.772;2.718;2023-09-19T11:46:52;101530.75;;;27.64;87.66
51460;BME280;37534;39.772;2.718;2023-09-19T11:49:19;101515.41;;;27.58;84.47
51460;BME280;37534;39.772;2.718;2023-09-19T11:51:50;101523.50;;;27.66;84.96
51460;BME280;37534;39.772;2.718;2023-09-19T11:54:20;101499.22;;;27.61;81.24
51460;BME280;37534;39.772;2.718;2023-09-19T11:56:51;101511.31;;;27.54;83.71
51460;BME280;37534;39.772;2.718;2023-09-19T11:59:22;101516.34;;;27.57;84.57
51460;BME280;37534;39.772;2.718;2023-09-19T12:01:53;101508.75;;;27.73;84.64
51460;BME280;37534;39.772;2.718;2023-09-19T12:04:38;101508.56;;;27.86;81.02
51460;BME280;37534;39.772;2.718;2023-09-19T12:07:11;101505.75;;;27.87;82.66
51460;BME280;37534;39.772;2.718;2023-09-19T12:09:44;101511.00;;;27.78;82.82
51460;BME280;37534;39.772;2.718;2023-09-19T12:12:27;101509.63;;;27.83;85.25
51460;BME280;37534;39.772;2.718;2023-09-19T12:14:54;101505.00;;;27.97;87.42
51460;BME280;37534;39.772;2.718;2023-09-19T12:17:22;101499.81;;;28.05;86.57
51460;BME280;37534;39.772;2.718;2023-09-19T12:19:53;101505.88;;;28.07;86.77
51460;BME280;37534;39.772;2.718;2023-09-19T12:22:19;101487.66;;;27.93;83.67
51460;BME280;37534;39.772;2.718;2023-09-19T12:24:48;101491.88;;;28.05;84.10
51460;BME280;37534;39.772;2.718;2023-09-19T12:27:16;101490.78;;;28.17;84.44
51460;BME280;37534;39.772;2.718;2023-09-19T12:29:43;101486.75;;;28.13;84.71
51460;BME280;37534;39.772;2.718;2023-09-19T12:32:09;101486.19;;;28.10;84.52
51460;BME280;37534;39.772;2.718;2023-09-19T12:34:36;101486.88;;;28.02;84.15
51460;BME280;37534;39.772;2.718;2023-09-19T12:39:48;101467.41;;;27.92;85.59
51460;BME280;37534;39.772;2.718;2023-09-19T12:42:17;101460.25;;;27.82;86.46
51460;BME280;37534;39.772;2.718;2023-09-19T12:44:48;101449.59;;;27.73;86.92
51460;BME280;37534;39.772;2.718;2023-09-19T12:47:15;101448.88;;;27.61;87.58
51460;BME280;37534;39.772;2.718;2023-09-19T12:50:11;101450.34;;;27.54;87.89
51460;BME280;37534;39.772;2.718;2023-09-19T12:52:47;101449.50;;;27.43;90.36
51460;BME280;37534;39.772;2.718;2023-09-19T12:55:40;101452.00;;;27.24;92.23
51460;BME280;37534;39.772;2.718;2023-09-19T12:58:08;101453.75;;;27.13;94.05
51460;BME280;37534;39.772;2.718;2023-09-19T13:00:42;101442.38;;;27.02;95.86
51460;BME280;37534;39.772;2.718;2023-09-19T13:03:17;101445.88;;;27.02;100.00
51460;BME280;37534;39.772;2.718;2023-09-19T13:08:18;101435.59;;;27.09;100.00
51460;BME280;37534;39.772;2.718;2023-09-19T13:14:18;101419.00;;;26.86;100.00
51460;BME280;37534;39.772;2.718;2023-09-19T13:16:26;101401.06;;;26.57;100.00
51460;BME280;37534;39.772;2.718;2023-09-19T13:18:53;101387.50;;;26.29;100.00
51460;BME280;37534;39.772;2.718;2023-09-19T13:21:33;101393.03;;;26.15;100.00
51460;BME280;37534;39.772;2.718;2023-09-19T13:24:20;101401.75;;;25.94;100.00
51460;BME280;37534;39.772;2.718;2023-09-19T13:26:46;101405.97;;;25.63;100.00
51460;BME280;37534;39.772;2.718;2023-09-19T13:29:11;101408.13;;;25.47;100.00
51460;BME280;37534;39.772;2.718;2023-09-19T13:31:37;101407.06;;;25.27;100.00
51460;BME280;37534;39.772;2.718;2023-09-19T13:34:07;101413.84;;;25.18;100.00
51460;BME280;37534;39.772;2.718;2023-09-19T13:36:32;101406.38;;;25.00;100.00
51460;BME280;37534;39.772;2.718;2023-09-19T13:38:59;101407.91;;;24.92;100.00
51460;BME280;37534;39.772;2.718;2023-09-19T13:41:25;101407.63;;;24.72;100.00